Time;durP1;ratioP1;P1;durP2;ratioP2;P2;SDS_P1;SDS_P2;PMS_P1;PMS_P2;Temp;Humidity;BMP_temperature;BMP_pressure;BME280_temperature;BME280_humidity;BME280_pressure;Samples;Min_cycle;Max_cycle;Signal;HPM_P1;HPM_P2
2022/02/18 00:02:11;;;;;;;;;;;;;;;28.68;22.50;99524.75;5079004;28;1040;-32
2022/02/18 00:04:37;;;;;;;;;;;;;;;28.31;22.95;99527.38;5077985;28;785;-30
2022/02/18 00:07:03;;;;;;;;;;;;;;;28.17;23.00;99535.59;5078770;28;865;-32
2022/02/18 00:09:28;;;;;;;;;;;;;;;28.54;22.78;99537.59;5079097;28;1191;-34
2022/02/18 00:11:53;;;;;;;;;;;;;;;28.99;22.23;99537.59;5078580;28;944;-31
2022/02/18 00:14:19;;;;;;;;;;;;;;;28.87;22.44;99534.78;5078176;28;884;-33
2022/02/18 00:16:44;;;;;;;;;;;;;;;28.72;22.47;99542.22;5072655;28;847;-32
2022/02/18 00:19:09;;;;;;;;;;;;;;;28.70;22.47;99538.06;5078252;28;1961;-32
2022/02/18 00:21:35;;;;;;;;;;;;;;;28.62;22.59;99541.06;5078900;28;730;-35
2022/02/18 00:24:00;;;;;;;;;;;;;;;28.64;22.47;99556.03;5078230;28;927;-32
2022/02/18 00:26:26;;;;;;;;;;;;;;;28.90;22.22;99543.28;5078245;28;749;-33
2022/02/18 00:28:51;;;;;;;;;;;;;;;28.73;22.44;99534.91;5075502;28;1145;-32
2022/02/18 00:31:17;;;;;;;;;;;;;;;28.56;22.62;99538.19;5076573;28;1547;-32
2022/02/18 00:33:42;;;;;;;;;;;;;;;28.62;22.64;99532.94;5077761;28;1275;-37
2022/02/18 00:36:07;;;;;;;;;;;;;;;28.64;22.51;99539.78;5078095;28;835;-36
2022/02/18 00:38:32;;;;;;;;;;;;;;;28.61;22.63;99551.06;5072135;28;1967;-31
2022/02/18 00:40:58;;;;;;;;;;;;;;;28.73;22.37;99538.44;5078092;28;1026;-37
2022/02/18 00:43:23;;;;;;;;;;;;;;;28.74;22.33;99550.09;5077577;28;893;-32
2022/02/18 00:45:48;;;;;;;;;;;;;;;28.38;23.04;99555.19;5072490;28;1738;-36
2022/02/18 00:48:14;;;;;;;;;;;;;;;28.44;22.93;99548.94;5076739;28;1480;-34
2022/02/18 00:50:39;;;;;;;;;;;;;;;28.84;22.43;99550.41;5078401;28;782;-33
2022/02/18 00:53:05;;;;;;;;;;;;;;;28.85;21.92;99553.94;5077505;28;797;-33
2022/02/18 00:55:30;;;;;;;;;;;;;;;28.80;21.88;99551.91;5075252;28;836;-32
2022/02/18 00:57:56;;;;;;;;;;;;;;;28.86;22.07;99558.31;5077600;28;1949;-32
2022/02/18 01:00:21;;;;;;;;;;;;;;;28.60;22.33;99577.28;5075309;28;893;-35
2022/02/18 01:02:46;;;;;;;;;;;;;;;28.48;22.78;99573.63;5077830;28;734;-31
2022/02/18 01:05:12;;;;;;;;;;;;;;;28.72;22.78;99558.44;5077779;28;821;-32
2022/02/18 01:07:37;;;;;;;;;;;;;;;28.84;22.38;99561.22;5071822;28;782;-34
2022/02/18 01:10:03;;;;;;;;;;;;;;;28.76;22.39;99564.22;5077803;28;1008;-33
2022/02/18 01:12:28;;;;;;;;;;;;;;;28.80;22.36;99562.75;5077144;28;881;-33
2022/02/18 01:14:54;;;;;;;;;;;;;;;28.71;22.40;99554.06;5077241;28;974;-33
2022/02/18 01:17:20;;;;;;;;;;;;;;;28.72;22.28;99558.44;5074164;28;958;-37
2022/02/18 01:19:45;;;;;;;;;;;;;;;28.73;22.29;99562.81;5074829;28;1902;-34
2022/02/18 01:22:11;;;;;;;;;;;;;;;28.78;22.31;99562.13;5077418;28;841;-34
2022/02/18 01:24:37;;;;;;;;;;;;;;;28.78;22.28;99562.13;5077366;28;794;-33
2022/02/18 01:27:03;;;;;;;;;;;;;;;28.70;22.18;99562.41;5076596;28;842;-31
2022/02/18 01:29:28;;;;;;;;;;;;;;;28.65;22.45;99556.84;5077100;28;1050;-33
2022/02/18 01:31:53;;;;;;;;;;;;;;;28.78;21.99;99572.94;5074392;28;1147;-33
2022/02/18 01:34:19;;;;;;;;;;;;;;;28.66;22.07;99582.88;5071830;28;853;-32
2022/02/18 01:36:44;;;;;;;;;;;;;;;28.68;22.53;99583.44;5076800;28;908;-33
2022/02/18 01:39:12;;;;;;;;;;;;;;;28.66;22.42;99577.44;5077238;28;1910;-33
2022/02/18 01:41:37;;;;;;;;;;;;;;;27.95;23.09;99581.06;5077185;28;924;-33
2022/02/18 01:44:05;;;;;;;;;;;;;;;27.53;24.24;99581.47;5077219;28;727;-34
2022/02/18 01:46:30;;;;;;;;;;;;;;;27.88;23.57;99600.00;5069548;28;815;-33
2022/02/18 01:48:55;;;;;;;;;;;;;;;28.26;23.27;99601.00;5076423;28;805;-34
2022/02/18 01:51:22;;;;;;;;;;;;;;;28.65;22.82;99616.38;5076781;28;829;-35
2022/02/18 01:53:50;;;;;;;;;;;;;;;28.77;22.14;99619.19;5077106;28;885;-31
2022/02/18 01:56:16;;;;;;;;;;;;;;;28.74;22.37;99612.34;5076345;28;837;-34
2022/02/18 01:58:41;;;;;;;;;;;;;;;28.71;22.17;99610.91;5071087;28;1890;-34
2022/02/18 02:01:09;;;;;;;;;;;;;;;28.71;22.29;99608.19;5072214;28;831;-35
2022/02/18 02:03:34;;;;;;;;;;;;;;;28.66;22.46;99605.31;5075957;28;778;-36
2022/02/18 02:06:00;;;;;;;;;;;;;;;28.67;22.30;99606.16;5075991;28;835;-35
2022/02/18 02:08:27;;;;;;;;;;;;;;;28.67;22.45;99608.88;5076478;28;909;-33
2022/02/18 02:10:53;;;;;;;;;;;;;;;28.61;22.32;99618.72;5076092;28;992;-33
2022/02/18 02:13:28;;;;;;;;;;;;;;;28.67;22.39;99622.38;5076702;28;782;-32
2022/02/18 02:15:53;;;;;;;;;;;;;;;28.59;22.27;99615.38;5074118;28;1495;-32
2022/02/18 02:18:18;;;;;;;;;;;;;;;28.51;22.50;99619.19;5075697;28;1954;-33
2022/02/18 02:20:44;;;;;;;;;;;;;;;27.95;22.89;99618.88;5077107;28;1055;-36
2022/02/18 02:23:09;;;;;;;;;;;;;;;28.02;22.96;99626.97;5075495;28;928;-31
2022/02/18 02:25:35;;;;;;;;;;;;;;;28.37;23.06;99618.47;5072324;28;805;-33
2022/02/18 02:28:00;;;;;;;;;;;;;;;28.62;22.49;99614.94;5076341;28;1162;-33
2022/02/18 02:30:25;;;;;;;;;;;;;;;28.69;22.62;99594.06;5074003;28;978;-35
2022/02/18 02:32:51;;;;;;;;;;;;;;;28.63;22.52;99588.72;5075565;28;1242;-31
2022/02/18 02:35:16;;;;;;;;;;;;;;;28.60;22.65;99557.50;5076100;28;841;-35
2022/02/18 02:37:41;;;;;;;;;;;;;;;28.60;22.10;99554.81;5075844;28;847;-35
2022/02/18 02:40:07;;;;;;;;;;;;;;;28.55;22.19;99568.16;5075849;28;1971;-32
2022/02/18 02:42:32;;;;;;;;;;;;;;;28.57;22.31;99579.59;5076207;28;1002;-34
2022/02/18 02:44:57;;;;;;;;;;;;;;;28.00;23.30;99575.81;5076022;28;927;-35
2022/02/18 02:47:23;;;;;;;;;;;;;;;27.96;23.28;99583.53;5075548;28;817;-36
2022/02/18 02:49:48;;;;;;;;;;;;;;;28.36;22.81;99587.88;5075951;28;730;-32
2022/02/18 02:52:13;;;;;;;;;;;;;;;28.68;22.23;99591.56;5076029;28;691;-32
2022/02/18 02:54:38;;;;;;;;;;;;;;;28.75;21.96;99594.22;5075435;28;885;-32
2022/02/18 02:57:04;;;;;;;;;;;;;;;28.75;22.14;99581.53;5076171;28;824;-35
2022/02/18 02:59:29;;;;;;;;;;;;;;;28.67;22.30;99574.53;5074452;28;1898;-31
2022/02/18 03:01:54;;;;;;;;;;;;;;;28.69;22.30;99574.31;5072968;28;882;-33
2022/02/18 03:04:20;;;;;;;;;;;;;;;28.63;22.23;99594.13;5076246;28;955;-35
2022/02/18 03:06:46;;;;;;;;;;;;;;;28.57;22.18;99585.84;5075857;28;841;-34
2022/02/18 03:09:11;;;;;;;;;;;;;;;28.54;22.24;99578.19;5075616;28;825;-32
2022/02/18 03:11:37;;;;;;;;;;;;;;;28.54;22.43;99580.03;5076061;28;1051;-31
2022/02/18 03:14:03;;;;;;;;;;;;;;;28.44;22.17;99562.44;5075274;28;1400;-31
2022/02/18 03:16:28;;;;;;;;;;;;;;;28.44;22.62;99562.44;5073990;28;887;-33
2022/02/18 03:18:53;;;;;;;;;;;;;;;28.01;23.10;99566.66;5079871;28;1894;-35
2022/02/18 03:21:19;;;;;;;;;;;;;;;27.95;23.33;99562.97;5079724;28;781;-35
2022/02/18 03:23:46;;;;;;;;;;;;;;;28.33;22.66;99568.56;5080129;28;809;-36
2022/02/18 03:26:12;;;;;;;;;;;;;;;28.48;22.97;99570.94;5079553;28;829;-34
2022/02/18 03:28:37;;;;;;;;;;;;;;;28.53;22.49;99568.38;5078751;28;902;-35
2022/02/18 03:31:03;;;;;;;;;;;;;;;28.50;22.62;99586.94;5079030;28;809;-33
2022/02/18 03:33:28;;;;;;;;;;;;;;;28.43;22.87;99612.16;5079055;28;1068;-32
2022/02/18 03:35:54;;;;;;;;;;;;;;;28.43;22.82;99608.63;5079239;28;861;-31
2022/02/18 03:38:20;;;;;;;;;;;;;;;28.40;23.00;99611.78;5079087;28;1901;-31
2022/02/18 03:40:46;;;;;;;;;;;;;;;28.39;22.63;99604.72;5075547;28;1026;-33
2022/02/18 03:43:12;;;;;;;;;;;;;;;28.15;23.00;99591.75;5078706;28;888;-35
2022/02/18 03:45:37;;;;;;;;;;;;;;;27.70;23.47;99577.25;5078805;28;889;-33
2022/02/18 03:48:03;;;;;;;;;;;;;;;27.75;23.72;99590.94;5079049;28;786;-32
2022/02/18 03:50:29;;;;;;;;;;;;;;;28.04;23.54;99590.59;5077881;28;845;-32
2022/02/18 03:52:57;;;;;;;;;;;;;;;28.43;22.54;99598.66;5078515;28;830;-32
2022/02/18 03:55:22;;;;;;;;;;;;;;;28.53;22.88;99606.25;5078981;28;846;-32
2022/02/18 03:57:47;;;;;;;;;;;;;;;28.48;22.62;99606.09;5078465;28;725;-34
2022/02/18 04:00:13;;;;;;;;;;;;;;;28.31;22.43;99608.50;5078454;28;1961;-33
2022/02/18 04:02:38;;;;;;;;;;;;;;;28.08;22.83;99608.00;5076441;28;763;-33
2022/02/18 04:05:04;;;;;;;;;;;;;;;28.27;22.84;99616.22;5077831;28;809;-32
2022/02/18 04:07:29;;;;;;;;;;;;;;;28.41;22.35;99622.38;5075845;28;936;-32
2022/02/18 04:09:54;;;;;;;;;;;;;;;28.50;22.46;99631.06;5078505;28;870;-35
2022/02/18 04:12:20;;;;;;;;;;;;;;;28.26;22.86;99624.53;5078760;28;1155;-34
2022/02/18 04:14:45;;;;;;;;;;;;;;;28.22;22.69;99627.69;5078523;28;1606;-33
2022/02/18 04:17:10;;;;;;;;;;;;;;;28.55;22.34;99623.13;5074834;28;1025;-32
2022/02/18 04:19:36;;;;;;;;;;;;;;;28.56;22.58;99624.75;5078598;28;1957;-33
2022/02/18 04:22:04;;;;;;;;;;;;;;;28.45;22.50;99623.59;5078492;28;758;-32
2022/02/18 04:24:29;;;;;;;;;;;;;;;27.89;23.07;99627.88;5076993;28;809;-33
2022/02/18 04:26:55;;;;;;;;;;;;;;;28.03;23.07;99634.06;5078341;28;850;-34
2022/02/18 04:29:20;;;;;;;;;;;;;;;28.42;22.38;99632.16;5077664;28;925;-31
2022/02/18 04:31:45;;;;;;;;;;;;;;;28.59;22.35;99631.63;5075366;28;1036;-34
2022/02/18 04:34:11;;;;;;;;;;;;;;;28.58;22.12;99628.06;5077376;28;1218;-31
2022/02/18 04:36:36;;;;;;;;;;;;;;;28.46;22.19;99627.16;5077471;28;1245;-32
2022/02/18 04:39:01;;;;;;;;;;;;;;;28.23;22.72;99618.53;5077735;28;1918;-33
2022/02/18 04:41:26;;;;;;;;;;;;;;;28.31;22.63;99625.53;5078234;28;966;-32
2022/02/18 04:43:52;;;;;;;;;;;;;;;28.67;22.00;99625.94;5077556;28;940;-31
2022/02/18 04:46:17;;;;;;;;;;;;;;;25.86;19.94;99616.09;5072307;28;811;-36
2022/02/18 04:48:42;;;;;;;;;;;;;;;24.71;20.36;99607.31;5077864;28;860;-32
2022/02/18 04:51:08;;;;;;;;;;;;;;;25.29;19.73;99611.69;5078445;28;765;-35
2022/02/18 04:53:33;;;;;;;;;;;;;;;25.63;19.57;99602.97;5077721;28;793;-35
2022/02/18 04:55:58;;;;;;;;;;;;;;;26.13;20.23;99615.34;5077697;28;908;-35
2022/02/18 04:58:23;;;;;;;;;;;;;;;26.85;21.16;99619.38;5077520;28;1965;-34
2022/02/18 05:00:49;;;;;;;;;;;;;;;26.90;22.00;99624.97;5075612;28;816;-35
2022/02/18 05:03:14;;;;;;;;;;;;;;;26.96;21.52;99642.22;5078240;28;809;-35
2022/02/18 05:05:39;;;;;;;;;;;;;;;26.81;22.04;99626.25;5077441;28;789;-33
2022/02/18 05:08:05;;;;;;;;;;;;;;;26.92;21.64;99620.22;5077524;28;825;-34
2022/02/18 05:10:30;;;;;;;;;;;;;;;26.94;21.59;99637.03;5071225;28;850;-37
2022/02/18 05:12:55;;;;;;;;;;;;;;;26.93;21.71;99648.84;5077661;28;733;-35
2022/02/18 05:15:21;;;;;;;;;;;;;;;26.74;22.50;99666.72;5075809;28;859;-34
2022/02/18 05:17:48;;;;;;;;;;;;;;;26.73;22.52;99676.66;5072195;28;833;-36
2022/02/18 05:20:16;;;;;;;;;;;;;;;26.85;22.37;99693.06;5076833;28;1890;-37
2022/02/18 05:22:42;;;;;;;;;;;;;;;26.77;22.45;99723.78;5076883;28;889;-34
2022/02/18 05:25:07;;;;;;;;;;;;;;;26.98;22.36;99738.13;5077153;28;872;-35
2022/02/18 05:27:32;;;;;;;;;;;;;;;26.98;22.17;99775.91;5075902;28;1100;-33
2022/02/18 05:29:57;;;;;;;;;;;;;;;26.94;22.12;99776.53;5077076;28;969;-35
2022/02/18 05:32:23;;;;;;;;;;;;;;;26.78;22.76;99792.03;5072003;28;1074;-33
2022/02/18 05:34:49;;;;;;;;;;;;;;;26.89;22.56;99794.16;5076955;28;770;-34
2022/02/18 05:37:14;;;;;;;;;;;;;;;26.95;22.51;99799.75;5076663;28;961;-38
2022/02/18 05:39:39;;;;;;;;;;;;;;;27.17;21.95;99823.91;5091843;28;1956;-38
2022/02/18 05:42:05;;;;;;;;;;;;;;;27.34;21.89;99821.66;5076702;28;841;-33
2022/02/18 05:44:34;;;;;;;;;;;;;;;27.18;22.06;99830.97;5076608;28;860;-36
2022/02/18 05:46:59;;;;;;;;;;;;;;;27.00;22.40;99832.38;5076016;28;861;-33
2022/02/18 05:49:25;;;;;;;;;;;;;;;27.00;21.93;99838.59;5076839;28;845;-33
2022/02/18 05:51:50;;;;;;;;;;;;;;;27.15;21.96;99853.81;5077220;28;713;-37
2022/02/18 05:54:15;;;;;;;;;;;;;;;27.24;21.71;99841.78;5076220;28;841;-36
2022/02/18 05:56:41;;;;;;;;;;;;;;;27.13;21.85;99836.97;5076507;28;845;-36
2022/02/18 05:59:06;;;;;;;;;;;;;;;26.97;22.16;99849.81;5076867;28;1905;-36
2022/02/18 06:01:31;;;;;;;;;;;;;;;27.13;21.91;99847.78;5073039;28;944;-32
2022/02/18 06:03:56;;;;;;;;;;;;;;;27.29;21.86;99867.34;5076602;28;1454;-38
2022/02/18 06:06:22;;;;;;;;;;;;;;;27.35;21.81;99882.72;5076755;28;781;-34
2022/02/18 06:08:47;;;;;;;;;;;;;;;27.55;21.46;99873.78;5076269;28;800;-35
2022/02/18 06:11:12;;;;;;;;;;;;;;;27.31;21.93;99890.38;5076143;28;1055;-33
2022/02/18 06:13:38;;;;;;;;;;;;;;;27.62;21.65;99883.56;5074411;28;785;-32
2022/02/18 06:16:03;;;;;;;;;;;;;;;27.45;21.53;99877.75;5069523;28;1008;-34
2022/02/18 06:18:28;;;;;;;;;;;;;;;27.46;21.20;99886.69;5076322;28;1957;-36
2022/02/18 06:20:54;;;;;;;;;;;;;;;27.34;21.54;99892.66;5074778;28;1060;-31
2022/02/18 06:23:19;;;;;;;;;;;;;;;27.08;21.90;99906.94;5076344;28;734;-34
2022/02/18 06:25:44;;;;;;;;;;;;;;;27.18;21.88;99898.44;5075971;28;876;-33
2022/02/18 06:28:13;;;;;;;;;;;;;;;27.15;21.43;99915.91;5076344;28;837;-35
2022/02/18 06:30:40;;;;;;;;;;;;;;;27.35;21.32;99904.31;5065938;28;934;-34
2022/02/18 06:33:06;;;;;;;;;;;;;;;27.41;21.17;99910.78;5076672;28;1098;-35
2022/02/18 06:35:31;;;;;;;;;;;;;;;27.20;21.28;99939.59;5069359;28;871;-34
2022/02/18 06:37:57;;;;;;;;;;;;;;;27.04;21.75;99932.69;5074629;28;963;-32
2022/02/18 06:40:22;;;;;;;;;;;;;;;27.14;21.65;99949.34;5075251;28;1973;-33
2022/02/18 06:42:47;;;;;;;;;;;;;;;27.25;21.03;99954.16;5076419;28;924;-33
2022/02/18 06:45:17;;;;;;;;;;;;;;;27.62;20.63;99972.72;5075393;28;890;-35
2022/02/18 06:47:43;;;;;;;;;;;;;;;27.42;21.03;99969.97;5069482;28;1584;-37
2022/02/18 06:50:08;;;;;;;;;;;;;;;27.04;21.38;99984.81;5082437;28;1403;-40
2022/02/18 06:52:34;;;;;;;;;;;;;;;27.30;21.51;99985.09;5083783;28;1333;-40
2022/02/18 06:54:59;;;;;;;;;;;;;;;27.28;20.27;99973.69;5087556;28;1364;-40
2022/02/18 06:57:24;;;;;;;;;;;;;;;27.73;21.53;99979.41;5080781;28;1518;-38
2022/02/18 06:59:49;;;;;;;;;;;;;;;27.89;21.60;99984.63;5083378;28;1897;-40
2022/02/18 07:02:15;;;;;;;;;;;;;;;27.89;21.65;100044.09;5080288;28;1522;-42
2022/02/18 07:04:40;;;;;;;;;;;;;;;27.41;22.02;99981.00;5077960;28;1319;-41
2022/02/18 07:07:06;;;;;;;;;;;;;;;27.57;21.76;99990.59;5083827;28;1403;-40
2022/02/18 07:09:32;;;;;;;;;;;;;;;27.68;21.58;99994.53;5088784;28;817;-39
2022/02/18 07:11:57;;;;;;;;;;;;;;;28.03;21.41;99982.78;5075928;28;1361;-41
2022/02/18 07:14:22;;;;;;;;;;;;;;;28.27;21.96;99984.00;5077761;28;1350;-40
2022/02/18 07:16:48;;;;;;;;;;;;;;;28.26;23.18;99986.91;5068790;28;1530;-41
2022/02/18 07:19:13;;;;;;;;;;;;;;;28.21;22.79;99974.03;5073250;28;1902;-40
2022/02/18 07:21:39;;;;;;;;;;;;;;;28.27;22.69;100002.94;5069448;28;1538;-40
2022/02/18 07:24:05;;;;;;;;;;;;;;;28.33;22.67;100003.97;5078418;28;1309;-40
2022/02/18 07:26:30;;;;;;;;;;;;;;;28.36;22.78;100006.28;5074154;28;1331;-37
2022/02/18 07:28:56;;;;;;;;;;;;;;;27.53;22.91;100005.53;5079088;28;837;-38
2022/02/18 07:31:21;;;;;;;;;;;;;;;27.13;23.13;100005.19;5074512;28;1242;-39
2022/02/18 07:33:46;;;;;;;;;;;;;;;27.22;23.52;100029.31;5078153;28;1358;-39
2022/02/18 07:36:12;;;;;;;;;;;;;;;26.65;24.27;100031.06;5075023;28;1396;-39
2022/02/18 07:38:38;;;;;;;;;;;;;;;26.32;24.64;100037.03;5079559;28;1906;-39
2022/02/18 07:41:03;;;;;;;;;;;;;;;26.40;24.32;100036.91;5078763;28;1191;-39
2022/02/18 07:43:29;;;;;;;;;;;;;;;26.64;24.00;100050.16;5077426;28;1230;-39
2022/02/18 07:45:58;;;;;;;;;;;;;;;26.81;24.11;100060.66;5075567;28;1473;-39
2022/02/18 07:48:23;;;;;;;;;;;;;;;26.95;23.58;100051.59;5078563;28;1039;-39
2022/02/18 07:50:49;;;;;;;;;;;;;;;26.66;22.96;100069.66;5079035;28;1194;-39
2022/02/18 07:53:14;;;;;;;;;;;;;;;26.39;23.32;100069.47;5079645;28;1210;-41
2022/02/18 07:55:39;;;;;;;;;;;;;;;26.94;22.94;100079.63;5076880;28;1561;-41
2022/02/18 07:58:05;;;;;;;;;;;;;;;27.26;22.63;100073.78;5082905;28;1969;-39
2022/02/18 08:00:32;;;;;;;;;;;;;;;27.34;22.34;100080.91;5081618;28;1363;-42
2022/02/18 08:02:58;;;;;;;;;;;;;;;27.51;22.76;100095.72;5086795;28;1283;-41
2022/02/18 08:05:23;;;;;;;;;;;;;;;27.59;22.76;100105.50;5080238;28;1360;-42
2022/02/18 08:07:48;;;;;;;;;;;;;;;27.68;22.94;100097.22;5085940;28;1182;-39
2022/02/18 08:10:14;;;;;;;;;;;;;;;27.77;23.38;100111.41;5076986;28;1224;-42
2022/02/18 08:12:39;;;;;;;;;;;;;;;27.69;23.36;100115.97;5082759;28;1519;-41
2022/02/18 08:15:04;;;;;;;;;;;;;;;27.48;22.51;100112.31;5077841;28;1526;-41
2022/02/18 08:17:34;;;;;;;;;;;;;;;27.48;23.08;100111.47;5074065;28;1483;-41
2022/02/18 08:19:59;;;;;;;;;;;;;;;27.00;23.93;100103.13;5074153;28;1981;-42
2022/02/18 08:22:27;;;;;;;;;;;;;;;26.83;23.89;100099.88;5078042;28;1665;-41
2022/02/18 08:24:52;;;;;;;;;;;;;;;26.69;24.18;100101.66;5079447;28;1396;-42
2022/02/18 08:27:17;;;;;;;;;;;;;;;26.68;24.71;100099.97;5078050;28;877;-42
2022/02/18 08:29:43;;;;;;;;;;;;;;;26.67;24.66;100098.31;5080461;28;1542;-42
2022/02/18 08:32:08;;;;;;;;;;;;;;;26.63;24.20;100110.53;5074456;28;1578;-42
2022/02/18 08:34:33;;;;;;;;;;;;;;;26.70;23.99;100110.56;5085352;28;777;-42
2022/02/18 08:37:01;;;;;;;;;;;;;;;26.69;24.50;100133.19;5077128;28;1178;-42
2022/02/18 08:39:26;;;;;;;;;;;;;;;26.82;23.78;100117.13;5076705;28;1982;-42
2022/02/18 08:41:51;;;;;;;;;;;;;;;26.78;23.73;100121.22;5077239;28;1444;-42
2022/02/18 08:44:17;;;;;;;;;;;;;;;26.69;24.52;100125.09;5077818;28;1776;-42
2022/02/18 08:46:42;;;;;;;;;;;;;;;26.82;24.87;100114.41;5077464;28;1122;-41
2022/02/18 08:49:08;;;;;;;;;;;;;;;26.89;24.84;100122.56;5067519;28;1502;-41
2022/02/18 08:51:33;;;;;;;;;;;;;;;26.97;24.23;100118.88;5076004;28;1193;-42
2022/02/18 08:53:59;;;;;;;;;;;;;;;27.09;23.47;100111.09;5075193;28;1566;-42
2022/02/18 08:56:24;;;;;;;;;;;;;;;27.19;23.16;100108.88;5076461;28;1400;-42
2022/02/18 08:58:50;;;;;;;;;;;;;;;27.06;24.57;100111.50;5070414;28;1973;-39
2022/02/18 09:01:15;;;;;;;;;;;;;;;26.52;25.52;100101.09;5076524;28;993;-38
2022/02/18 09:03:41;;;;;;;;;;;;;;;26.71;24.04;100112.25;5078750;28;1792;-40
2022/02/18 09:06:06;;;;;;;;;;;;;;;26.53;25.23;100121.66;5078468;28;1169;-39
2022/02/18 09:08:31;;;;;;;;;;;;;;;26.73;24.52;100118.28;5075477;28;1297;-39
2022/02/18 09:10:57;;;;;;;;;;;;;;;26.57;25.27;100125.63;5076594;28;1574;-40
2022/02/18 09:13:23;;;;;;;;;;;;;;;26.52;25.39;100120.00;5075786;28;1301;-39
2022/02/18 09:15:48;;;;;;;;;;;;;;;26.83;24.72;100128.72;5075061;28;1463;-40
2022/02/18 09:18:14;;;;;;;;;;;;;;;26.95;24.72;100116.38;5072564;28;1906;-39
2022/02/18 09:20:39;;;;;;;;;;;;;;;26.86;25.16;100128.34;5073642;28;1206;-39
2022/02/18 09:23:05;;;;;;;;;;;;;;;26.71;25.02;100140.06;5069709;28;1222;-39
2022/02/18 09:25:30;;;;;;;;;;;;;;;26.64;24.89;100156.19;5076082;28;1286;-38
2022/02/18 09:27:55;;;;;;;;;;;;;;;26.51;24.51;100134.47;5076029;28;1352;-39
2022/02/18 09:30:21;;;;;;;;;;;;;;;26.38;23.80;100162.16;5066494;28;1025;-40
2022/02/18 09:32:46;;;;;;;;;;;;;;;26.16;23.48;100162.13;5072701;28;1340;-40
2022/02/18 09:35:11;;;;;;;;;;;;;;;26.01;23.63;100171.09;5075341;28;1198;-40
2022/02/18 09:37:41;;;;;;;;;;;;;;;25.99;21.91;100183.91;5070830;28;1535;-40
2022/02/18 09:40:07;;;;;;;;;;;;;;;26.25;20.44;100179.03;5069225;28;1984;-39
2022/02/18 09:42:32;;;;;;;;;;;;;;;26.37;20.98;100184.78;5075209;28;1106;-40
2022/02/18 09:44:58;;;;;;;;;;;;;;;26.36;21.42;100178.53;5070442;28;1292;-40
2022/02/18 09:47:23;;;;;;;;;;;;;;;26.39;21.61;100194.34;5071593;28;1016;-40
2022/02/18 09:49:48;;;;;;;;;;;;;;;26.43;21.65;100188.56;5072697;28;1242;-39
2022/02/18 09:52:14;;;;;;;;;;;;;;;26.29;21.91;100202.72;5075905;28;1324;-39
2022/02/18 09:54:39;;;;;;;;;;;;;;;26.29;22.45;100194.63;5076026;28;1321;-39
2022/02/18 09:57:05;;;;;;;;;;;;;;;26.35;22.14;100203.84;5073518;28;1207;-39
2022/02/18 09:59:30;;;;;;;;;;;;;;;26.34;22.07;100204.84;5074226;28;1957;-40
2022/02/18 10:01:55;;;;;;;;;;;;;;;26.37;22.35;100206.34;5066951;28;1065;-41
2022/02/18 10:04:21;;;;;;;;;;;;;;;26.53;22.34;100208.81;5075271;28;1562;-39
2022/02/18 10:06:46;;;;;;;;;;;;;;;26.39;22.19;100207.00;5075932;28;1496;-39
2022/02/18 10:09:11;;;;;;;;;;;;;;;26.38;22.00;100216.09;5074996;28;1416;-40
2022/02/18 10:11:50;;;;;;;;;;;;;;;26.30;22.29;100211.63;5074558;28;1444;-40
2022/02/18 10:14:15;;;;;;;;;;;;;;;26.26;22.21;100208.47;5068618;28;1594;-40
2022/02/18 10:16:40;;;;;;;;;;;;;;;26.15;22.54;100196.34;5064620;28;1047;-39
2022/02/18 10:19:08;;;;;;;;;;;;;;;25.99;23.14;100212.75;5074964;28;1957;-40
2022/02/18 10:21:33;;;;;;;;;;;;;;;26.26;23.16;100208.47;5071519;28;1249;-40
2022/02/18 10:24:17;;;;;;;;;;;;;;;26.34;22.88;100198.66;5076484;28;1379;-39
2022/02/18 10:26:46;;;;;;;;;;;;;;;26.24;23.05;100207.84;5076814;28;1282;-40
2022/02/18 10:29:17;;;;;;;;;;;;;;;26.35;23.23;100203.84;5067087;28;1217;-39
2022/02/18 10:31:43;;;;;;;;;;;;;;;26.43;22.47;100199.34;5071743;28;1341;-39
2022/02/18 10:34:08;;;;;;;;;;;;;;;26.55;22.70;100205.06;5077380;28;1268;-40
2022/02/18 10:36:34;;;;;;;;;;;;;;;26.53;22.67;100208.81;5081919;28;1206;-39
2022/02/18 10:39:00;;;;;;;;;;;;;;;26.52;22.86;100207.16;5080162;28;1967;-40
2022/02/18 10:41:29;;;;;;;;;;;;;;;26.42;23.46;100203.91;5075690;28;1246;-39
2022/02/18 10:43:59;;;;;;;;;;;;;;;26.57;23.64;100206.56;5081550;28;1412;-39
2022/02/18 10:46:42;;;;;;;;;;;;;;;26.74;23.59;100214.41;5072165;28;1237;-39
2022/02/18 10:49:07;;;;;;;;;;;;;;;26.84;23.93;100198.69;5075249;28;1394;-38
2022/02/18 10:51:39;;;;;;;;;;;;;;;26.86;24.01;100207.44;5073056;28;1380;-38
2022/02/18 10:54:07;;;;;;;;;;;;;;;26.85;23.71;100204.94;5071428;28;1476;-39
2022/02/18 10:56:34;;;;;;;;;;;;;;;26.69;24.14;100206.03;5074472;28;1182;-38
2022/02/18 10:58:59;;;;;;;;;;;;;;;26.56;24.39;100195.97;5073349;28;1898;-38
2022/02/18 11:01:25;;;;;;;;;;;;;;;26.43;24.71;100194.78;5073805;28;1242;-39
2022/02/18 11:04:00;;;;;;;;;;;;;;;26.58;24.23;100199.28;5074344;28;1164;-39
2022/02/18 11:06:32;;;;;;;;;;;;;;;26.56;23.67;100191.38;5073152;28;1586;-39
2022/02/18 11:08:57;;;;;;;;;;;;;;;26.62;23.67;100200.59;5075604;28;1090;-39
2022/02/18 11:11:23;;;;;;;;;;;;;;;26.81;23.74;100203.66;5075715;28;1229;-39
2022/02/18 11:13:48;;;;;;;;;;;;;;;26.53;23.96;100198.00;5075636;28;1396;-39
2022/02/18 11:16:14;;;;;;;;;;;;;;;26.49;23.98;100204.00;5070498;28;1261;-39
2022/02/18 11:18:40;;;;;;;;;;;;;;;26.28;25.21;100201.06;5063356;28;1893;-39
2022/02/18 11:21:07;;;;;;;;;;;;;;;26.41;24.69;100204.94;5076001;28;1341;-39
2022/02/18 11:23:33;;;;;;;;;;;;;;;26.45;24.42;100198.13;5074817;28;1237;-39
2022/02/18 11:25:58;;;;;;;;;;;;;;;26.52;24.17;100207.16;5073781;28;1467;-39
2022/02/18 11:28:24;;;;;;;;;;;;;;;26.50;23.96;100211.03;5072944;28;1462;-39
2022/02/18 11:30:50;;;;;;;;;;;;;;;26.39;24.15;100209.69;5067987;28;1381;-39
2022/02/18 11:33:24;;;;;;;;;;;;;;;26.40;24.36;100208.66;5068571;28;1514;-39
2022/02/18 11:35:57;;;;;;;;;;;;;;;26.53;24.74;100216.91;5072816;28;1187;-39
2022/02/18 11:38:25;;;;;;;;;;;;;;;26.67;24.72;100208.09;5077754;28;1968;-39
2022/02/18 11:40:53;;;;;;;;;;;;;;;26.89;24.33;100228.63;5082946;28;1395;-39
2022/02/18 11:43:27;;;;;;;;;;;;;;;26.89;24.60;100228.63;5077296;28;1309;-39
2022/02/18 11:46:02;;;;;;;;;;;;;;;26.94;24.24;100221.81;5073294;28;1261;-39
2022/02/18 11:48:53;;;;;;;;;;;;;;;26.81;24.27;100226.06;5076591;28;1496;-39
2022/02/18 11:51:23;;;;;;;;;;;;;;;26.76;24.51;100239.28;5076188;28;1301;-46
2022/02/18 11:53:49;;;;;;;;;;;;;;;26.62;25.00;100241.88;5073069;28;909;-38
2022/02/18 11:56:14;;;;;;;;;;;;;;;26.49;25.47;100237.16;5076019;28;1104;-38
2022/02/18 11:58:48;;;;;;;;;;;;;;;26.60;25.17;100240.41;5072371;28;1894;-39
2022/02/18 12:01:14;;;;;;;;;;;;;;;26.64;24.38;100253.31;5074014;28;1349;-38
2022/02/18 12:03:39;;;;;;;;;;;;;;;26.82;24.52;100273.63;5079730;28;1318;-38
2022/02/18 12:06:04;;;;;;;;;;;;;;;26.48;21.39;100280.50;5081239;28;1304;-38
2022/02/18 12:08:30;;;;;;;;;;;;;;;25.98;21.35;100262.25;5075991;28;1499;-34
2022/02/18 12:10:55;;;;;;;;;;;;;;;25.67;23.54;100275.72;5079830;28;1317;-39
2022/02/18 12:13:20;;;;;;;;;;;;;;;25.86;23.85;100280.78;5075218;28;1419;-39
2022/02/18 12:15:46;;;;;;;;;;;;;;;26.11;23.99;100278.59;5076677;28;1471;-40
2022/02/18 12:18:15;;;;;;;;;;;;;;;26.41;23.00;100283.13;5075856;28;1380;-40
2022/02/18 12:20:41;;;;;;;;;;;;;;;26.42;22.61;100284.81;5073474;28;1255;-39
2022/02/18 12:23:26;;;;;;;;;;;;;;;26.25;22.70;100290.41;5071357;28;1336;-38
2022/02/18 12:26:11;;;;;;;;;;;;;;;25.91;22.67;100294.50;5075702;28;1341;-39
2022/02/18 12:28:36;;;;;;;;;;;;;;;25.81;23.01;100300.16;5073410;28;1841;-39
2022/02/18 12:31:06;;;;;;;;;;;;;;;26.12;22.84;100309.09;5074078;28;1179;-38
2022/02/18 12:33:32;;;;;;;;;;;;;;;26.39;23.57;100321.06;5077014;28;1496;-39
2022/02/18 12:35:57;;;;;;;;;;;;;;;26.55;24.63;100315.66;5074109;28;1570;-39
2022/02/18 12:38:22;;;;;;;;;;;;;;;26.41;26.33;100326.28;5074764;28;1906;-39
2022/02/18 12:40:48;;;;;;;;;;;;;;;26.49;25.87;100331.56;5073953;28;1293;-39
2022/02/18 12:43:16;;;;;;;;;;;;;;;26.54;25.22;100349.91;5071949;28;1249;-38
2022/02/18 12:45:42;;;;;;;;;;;;;;;26.88;24.53;100355.66;5072349;28;1428;-39
2022/02/18 12:48:08;;;;;;;;;;;;;;;26.57;23.35;100375.66;5080381;28;1459;-40
2022/02/18 12:50:33;;;;;;;;;;;;;;;25.97;22.69;100387.25;5076840;28;1491;-39